This is the latest recevied weather packets stored in our database for station/object DO1BDB-12. If no packets are shown the sender has not sent any weather packets the latest 10 day(s).
| Time | Temp. | Humidity | Pressure | Rain* | Wind** | Luminosity | Snow |
|---|---|---|---|---|---|---|---|
| 1777625244 | 20.56° C | 35% | 102.9 hPa | - | - | - | - |
| 1777625178 | 23.89° C | 35% | 102.9 hPa | - | - | - | - |
| 1777625112 | 23.33° C | 34% | 102.9 hPa | - | - | - | - |
| 1777625047 | 23.33° C | 33% | 102.9 hPa | - | - | - | - |
| 1777624981 | 23.33° C | 33% | 102.9 hPa | - | - | - | - |
| 1777624915 | 22.78° C | 35% | 102.9 hPa | - | - | - | - |
| 1777624849 | 22.78° C | 36% | 102.9 hPa | - | - | - | - |
| 1777624783 | 21.67° C | 38% | 102.9 hPa | - | - | - | - |
| 1777624718 | 22.22° C | 34% | 102.9 hPa | - | - | - | - |
| 1777624652 | 22.22° C | 35% | 102.9 hPa | - | - | - | - |
| 1777624586 | 22.78° C | 35% | 102.9 hPa | - | - | - | - |
| 1777624520 | 22.22° C | 34% | 102.9 hPa | - | - | - | - |
| 1777624454 | 22.78° C | 34% | 102.9 hPa | - | - | - | - |
| 1777624388 | 22.22° C | 37% | 102.9 hPa | - | - | - | - |
| 1777624322 | 21.11° C | 39% | 102.9 hPa | - | - | - | - |
| 1777624257 | 18.89° C | 42% | 103 hPa | - | - | - | - |
| 1777624191 | 20° C | 39% | 103 hPa | - | - | - | - |
| 1777624125 | 20° C | 40% | 103 hPa | - | - | - | - |
| 1777624059 | 22.22° C | 37% | 102.9 hPa | - | - | - | - |
| 1777623993 | 24.44° C | 31% | 102.9 hPa | - | - | - | - |
| 1777623927 | 24.44° C | 33% | 102.9 hPa | - | - | - | - |
| 1777623862 | 22.78° C | 35% | 102.9 hPa | - | - | - | - |
| 1777623796 | 25.56° C | 32% | 102.9 hPa | - | - | - | - |
| 1777623730 | 23.89° C | 35% | 102.9 hPa | - | - | - | - |
| 1777623664 | 23.89° C | 33% | 102.9 hPa | - | - | - | - |
* Rain since midnight (hover to see other rain measurements)
** Current wind speed in m/s (hover to see current wind gust speed)